Time;durP1;ratioP1;P1;durP2;ratioP2;P2;SDS_P1;SDS_P2;PMS_P1;PMS_P2;Temp;Humidity;BMP_temperature;BMP_pressure;BME280_temperature;BME280_humidity;BME280_pressure;Samples;Min_cycle;Max_cycle;Signal;HPM_P1;HPM_P2
2024/01/12 00:00:06;;;;;;;31.87;18.80;;;;;;;;;;683480;28;976;-65
2024/01/12 00:00:32;;;;;;;32.67;18.75;;;;;;;;;;685125;28;641;-65
2024/01/12 00:00:52;;;;;;;34.20;19.70;;;;;;;;;;684097;28;4358;-66
2024/01/12 00:01:14;;;;;;;32.07;18.83;;;;;;;;;;683455;28;2268;-65
2024/01/12 00:01:34;;;;;;;32.63;18.77;;;;;;;;;;685630;28;996;-66
2024/01/12 00:01:55;;;;;;;31.97;18.83;;;;;;;;;;683341;28;1981;-66
2024/01/12 00:02:15;;;;;;;32.13;19.05;;;;;;;;;;681813;28;2516;-66
2024/01/12 00:02:35;;;;;;;32.07;18.77;;;;;;;;;;683404;28;1169;-65
2024/01/12 00:02:55;;;;;;;31.43;18.47;;;;;;;;;;687611;28;1165;-66
2024/01/12 00:03:16;;;;;;;30.90;18.60;;;;;;;;;;683679;28;1740;-65
2024/01/12 00:03:36;;;;;;;31.53;17.97;;;;;;;;;;685090;28;897;-65
2024/01/12 00:03:56;;;;;;;33.03;19.07;;;;;;;;;;686990;28;4408;-65
2024/01/12 00:04:16;;;;;;;32.78;19.63;;;;;;;;;;685909;28;1875;-65
2024/01/12 00:04:37;;;;;;;31.00;19.20;;;;;;;;;;687497;28;1062;-65
2024/01/12 00:04:58;;;;;;;30.23;18.23;;;;;;;;;;687702;28;913;-66
2024/01/12 00:05:18;;;;;;;31.17;18.53;;;;;;;;;;683835;28;983;-65
2024/01/12 00:05:39;;;;;;;31.98;18.30;;;;;;;;;;685268;28;1267;-65
2024/01/12 00:05:59;;;;;;;32.80;19.02;;;;;;;;;;685246;28;913;-65
2024/01/12 00:06:19;;;;;;;30.33;18.57;;;;;;;;;;683511;28;1883;-65
2024/01/12 00:06:40;;;;;;;33.90;19.13;;;;;;;;;;684841;28;835;-65
2024/01/12 00:07:01;;;;;;;33.60;18.17;;;;;;;;;;687299;28;4237;-66
2024/01/12 00:07:23;;;;;;;32.33;17.92;;;;;;;;;;686606;28;1708;-65
2024/01/12 00:07:44;;;;;;;31.33;18.13;;;;;;;;;;686857;28;834;-65
2024/01/12 00:08:05;;;;;;;31.17;18.98;;;;;;;;;;686179;28;1875;-66
2024/01/12 00:08:28;;;;;;;33.20;18.75;;;;;;;;;;687181;28;829;-65
2024/01/12 00:08:49;;;;;;;31.83;18.40;;;;;;;;;;687841;28;924;-66
2024/01/12 00:09:11;;;;;;;31.40;18.57;;;;;;;;;;686628;28;2367;-65
2024/01/12 00:09:32;;;;;;;30.30;18.17;;;;;;;;;;681931;28;980;-66
2024/01/12 00:09:52;;;;;;;28.63;17.53;;;;;;;;;;684412;28;4412;-65
2024/01/12 00:10:13;;;;;;;32.47;18.67;;;;;;;;;;686777;28;1632;-66
2024/01/12 00:10:34;;;;;;;33.50;19.42;;;;;;;;;;686706;28;1254;-65
2024/01/12 00:10:54;;;;;;;31.88;18.70;;;;;;;;;;687493;28;897;-66
2024/01/12 00:11:14;;;;;;;33.80;19.83;;;;;;;;;;686499;28;2386;-65
2024/01/12 00:11:34;;;;;;;33.93;19.57;;;;;;;;;;685063;28;889;-66
2024/01/12 00:11:55;;;;;;;33.92;19.35;;;;;;;;;;685396;28;885;-65
2024/01/12 00:12:15;;;;;;;29.40;18.30;;;;;;;;;;683382;28;2371;-65
2024/01/12 00:12:35;;;;;;;29.70;18.67;;;;;;;;;;684174;28;885;-66
2024/01/12 00:12:55;;;;;;;32.35;18.88;;;;;;;;;;686397;28;4285;-66
2024/01/12 00:13:17;;;;;;;29.20;18.63;;;;;;;;;;686520;28;1261;-65
2024/01/12 00:13:38;;;;;;;31.95;18.75;;;;;;;;;;686435;28;2122;-65
2024/01/12 00:13:58;;;;;;;30.33;19.23;;;;;;;;;;687747;28;1409;-65
2024/01/12 00:14:18;;;;;;;31.45;18.73;;;;;;;;;;689527;28;2228;-65
2024/01/12 00:14:38;;;;;;;30.77;18.10;;;;;;;;;;689716;28;1076;-66
2024/01/12 00:14:59;;;;;;;31.67;18.20;;;;;;;;;;690112;28;865;-65
2024/01/12 00:15:19;;;;;;;33.42;19.23;;;;;;;;;;689460;28;2808;-65
2024/01/12 00:15:39;;;;;;;30.60;18.07;;;;;;;;;;689868;28;1168;-65
2024/01/12 00:16:03;;;;;;;30.97;18.73;;;;;;;;;;687646;28;4322;-65
2024/01/12 00:16:24;;;;;;;31.13;18.27;;;;;;;;;;686246;28;2206;-65
2024/01/12 00:16:47;;;;;;;31.77;18.73;;;;;;;;;;686897;28;929;-65
2024/01/12 00:17:08;;;;;;;32.97;19.13;;;;;;;;;;686659;28;2267;-64
2024/01/12 00:17:28;;;;;;;31.27;18.57;;;;;;;;;;685059;28;898;-65
2024/01/12 00:17:48;;;;;;;30.50;18.67;;;;;;;;;;679787;29;878;-65
2024/01/12 00:18:09;;;;;;;30.43;18.97;;;;;;;;;;682018;28;1250;-65
2024/01/12 00:18:29;;;;;;;30.60;19.27;;;;;;;;;;680908;29;925;-65
2024/01/12 00:18:49;;;;;;;30.37;19.20;;;;;;;;;;681969;28;4382;-65
2024/01/12 00:19:10;;;;;;;32.20;19.13;;;;;;;;;;682024;28;1947;-65
2024/01/12 00:19:30;;;;;;;31.92;19.15;;;;;;;;;;687290;28;969;-65
2024/01/12 00:19:51;;;;;;;35.70;19.80;;;;;;;;;;689574;28;1196;-65
2024/01/12 00:20:11;;;;;;;33.10;18.70;;;;;;;;;;689050;28;3336;-65
2024/01/12 00:20:33;;;;;;;31.20;19.33;;;;;;;;;;686324;28;991;-65
2024/01/12 00:20:53;;;;;;;32.22;18.73;;;;;;;;;;681858;29;837;-66
2024/01/12 00:21:14;;;;;;;33.00;19.00;;;;;;;;;;681220;28;2492;-65
2024/01/12 00:21:34;;;;;;;32.20;18.45;;;;;;;;;;682359;29;1378;-65
2024/01/12 00:21:54;;;;;;;33.90;19.03;;;;;;;;;;681354;28;4286;-66
2024/01/12 00:22:15;;;;;;;31.35;18.13;;;;;;;;;;680231;28;2349;-65
2024/01/12 00:22:35;;;;;;;32.87;18.77;;;;;;;;;;684755;28;1028;-65
2024/01/12 00:22:58;;;;;;;32.23;19.27;;;;;;;;;;682956;28;1210;-66
2024/01/12 00:23:18;;;;;;;34.13;20.20;;;;;;;;;;681687;28;963;-65
2024/01/12 00:23:39;;;;;;;33.80;19.77;;;;;;;;;;684376;28;1249;-66
2024/01/12 00:23:59;;;;;;;33.80;19.35;;;;;;;;;;682704;28;1220;-66
2024/01/12 00:24:19;;;;;;;33.67;19.87;;;;;;;;;;683913;28;2199;-65
2024/01/12 00:24:41;;;;;;;31.40;19.77;;;;;;;;;;684637;28;882;-65
2024/01/12 00:25:01;;;;;;;34.25;20.55;;;;;;;;;;687800;28;4520;-65
2024/01/12 00:25:22;;;;;;;32.77;19.40;;;;;;;;;;686096;28;2418;-66
2024/01/12 00:25:42;;;;;;;33.60;19.38;;;;;;;;;;686734;28;1103;-65
2024/01/12 00:26:03;;;;;;;34.93;20.23;;;;;;;;;;684827;28;1208;-66
2024/01/12 00:26:23;;;;;;;33.95;20.13;;;;;;;;;;684061;28;1432;-66
2024/01/12 00:26:43;;;;;;;36.07;20.37;;;;;;;;;;686220;28;988;-65
2024/01/12 00:27:03;;;;;;;35.30;19.93;;;;;;;;;;687303;28;1374;-65
2024/01/12 00:27:24;;;;;;;35.13;20.13;;;;;;;;;;686069;28;2237;-66
2024/01/12 00:27:44;;;;;;;33.33;19.40;;;;;;;;;;689678;28;4431;-65
2024/01/12 00:28:04;;;;;;;33.53;19.47;;;;;;;;;;690422;28;862;-65
2024/01/12 00:28:27;;;;;;;34.47;19.37;;;;;;;;;;689731;28;937;-65
2024/01/12 00:28:48;;;;;;;36.25;19.83;;;;;;;;;;689899;28;980;-65
2024/01/12 00:29:08;;;;;;;34.05;20.25;;;;;;;;;;687787;28;1741;-65
2024/01/12 00:29:28;;;;;;;33.37;20.80;;;;;;;;;;687837;28;881;-65
2024/01/12 00:29:49;;;;;;;34.13;20.10;;;;;;;;;;688703;28;948;-66
2024/01/12 00:30:09;;;;;;;35.30;20.38;;;;;;;;;;686467;28;998;-65
2024/01/12 00:30:29;;;;;;;36.10;20.23;;;;;;;;;;687811;28;871;-65
2024/01/12 00:30:49;;;;;;;34.67;19.93;;;;;;;;;;687020;28;4347;-65
2024/01/12 00:31:10;;;;;;;33.65;19.30;;;;;;;;;;684090;28;2579;-66
2024/01/12 00:31:30;;;;;;;33.93;19.23;;;;;;;;;;683707;28;1430;-65
2024/01/12 00:31:50;;;;;;;36.33;20.33;;;;;;;;;;685723;28;901;-64
2024/01/12 00:32:11;;;;;;;33.55;19.45;;;;;;;;;;683969;28;1759;-65
2024/01/12 00:32:32;;;;;;;35.80;20.27;;;;;;;;;;684567;28;929;-64
2024/01/12 00:32:52;;;;;;;33.97;19.63;;;;;;;;;;685067;28;852;-65
2024/01/12 00:33:12;;;;;;;34.15;19.63;;;;;;;;;;684108;28;2661;-65
2024/01/12 00:33:32;;;;;;;36.03;20.27;;;;;;;;;;684751;28;936;-66
2024/01/12 00:33:53;;;;;;;35.37;19.60;;;;;;;;;;684649;28;4451;-65
2024/01/12 00:34:13;;;;;;;34.22;19.65;;;;;;;;;;683873;28;2369;-65
2024/01/12 00:34:33;;;;;;;35.00;19.20;;;;;;;;;;684709;28;835;-65
2024/01/12 00:34:53;;;;;;;34.50;19.93;;;;;;;;;;685378;28;907;-65
2024/01/12 00:35:14;;;;;;;32.97;19.25;;;;;;;;;;683990;28;1694;-65
2024/01/12 00:35:34;;;;;;;32.13;19.60;;;;;;;;;;684212;28;1343;-65
2024/01/12 00:35:54;;;;;;;33.63;19.43;;;;;;;;;;684677;28;954;-65
2024/01/12 00:36:14;;;;;;;35.07;19.60;;;;;;;;;;683760;28;1418;-66
2024/01/12 00:36:35;;;;;;;31.73;18.60;;;;;;;;;;684896;28;952;-66
2024/01/12 00:36:55;;;;;;;33.23;19.03;;;;;;;;;;686045;28;4411;-65
2024/01/12 00:37:15;;;;;;;35.17;20.13;;;;;;;;;;686181;28;979;-65
2024/01/12 00:37:36;;;;;;;35.00;20.65;;;;;;;;;;687487;28;915;-65
2024/01/12 00:37:57;;;;;;;36.55;20.40;;;;;;;;;;687831;28;823;-65
2024/01/12 00:38:17;;;;;;;36.20;20.23;;;;;;;;;;686911;28;1177;-65
2024/01/12 00:38:37;;;;;;;36.43;20.60;;;;;;;;;;687552;28;814;-65
2024/01/12 00:38:58;;;;;;;37.30;20.23;;;;;;;;;;688884;28;5144;-65
2024/01/12 00:39:18;;;;;;;34.67;19.92;;;;;;;;;;685862;28;1705;-65
2024/01/12 00:39:38;;;;;;;33.90;20.07;;;;;;;;;;687223;28;1050;-65
2024/01/12 00:39:58;;;;;;;34.27;20.23;;;;;;;;;;684406;28;4275;-65
2024/01/12 00:40:19;;;;;;;33.10;20.15;;;;;;;;;;683811;28;2169;-65
2024/01/12 00:40:39;;;;;;;37.40;20.33;;;;;;;;;;684766;28;1074;-66
2024/01/12 00:41:00;;;;;;;37.35;20.40;;;;;;;;;;684751;28;885;-65
2024/01/12 00:41:22;;;;;;;36.87;20.20;;;;;;;;;;683726;28;1043;-65
2024/01/12 00:41:42;;;;;;;34.92;19.85;;;;;;;;;;684015;28;1910;-65
2024/01/12 00:42:03;;;;;;;35.13;19.53;;;;;;;;;;684878;28;834;-65
2024/01/12 00:42:23;;;;;;;33.23;19.50;;;;;;;;;;683346;28;1784;-65
2024/01/12 00:42:43;;;;;;;37.20;20.37;;;;;;;;;;684227;28;4402;-65
2024/01/12 00:43:04;;;;;;;34.37;19.77;;;;;;;;;;684714;28;1217;-66
2024/01/12 00:43:24;;;;;;;35.60;19.60;;;;;;;;;;684008;28;1584;-64
2024/01/12 00:43:44;;;;;;;34.65;18.95;;;;;;;;;;685069;28;937;-65
2024/01/12 00:44:05;;;;;;;34.57;18.90;;;;;;;;;;684263;28;920;-66
2024/01/12 00:44:26;;;;;;;33.58;19.10;;;;;;;;;;684623;28;2351;-65
2024/01/12 00:44:46;;;;;;;34.53;20.07;;;;;;;;;;685133;28;940;-65
2024/01/12 00:45:07;;;;;;;34.60;20.53;;;;;;;;;;683952;28;1850;-65
2024/01/12 00:45:27;;;;;;;34.42;20.23;;;;;;;;;;684992;28;873;-65
2024/01/12 00:45:47;;;;;;;35.00;19.60;;;;;;;;;;685101;28;4357;-65
2024/01/12 00:46:08;;;;;;;36.65;20.13;;;;;;;;;;686523;28;1004;-66
2024/01/12 00:46:28;;;;;;;35.87;20.33;;;;;;;;;;687905;28;1025;-64
2024/01/12 00:46:51;;;;;;;35.85;20.85;;;;;;;;;;687671;28;939;-65
2024/01/12 00:47:12;;;;;;;33.83;19.65;;;;;;;;;;686334;28;2032;-66
2024/01/12 00:47:32;;;;;;;34.23;19.63;;;;;;;;;;687822;28;1039;-65
2024/01/12 00:47:52;;;;;;;34.30;20.10;;;;;;;;;;690380;28;825;-65
2024/01/12 00:48:12;;;;;;;38.13;19.87;;;;;;;;;;688650;28;2559;-65
2024/01/12 00:48:33;;;;;;;34.27;19.90;;;;;;;;;;690237;28;909;-65
2024/01/12 00:48:53;;;;;;;33.60;20.27;;;;;;;;;;689804;28;4846;-65
2024/01/12 00:49:13;;;;;;;31.33;19.73;;;;;;;;;;689014;28;1491;-66
2024/01/12 00:49:33;;;;;;;32.43;19.10;;;;;;;;;;689505;28;932;-66
2024/01/12 00:49:54;;;;;;;34.40;20.30;;;;;;;;;;687625;28;1062;-65
2024/01/12 00:50:14;;;;;;;35.03;20.33;;;;;;;;;;686471;28;2633;-66
2024/01/12 00:50:34;;;;;;;34.90;19.00;;;;;;;;;;687672;28;975;-65
2024/01/12 00:50:55;;;;;;;36.25;19.83;;;;;;;;;;686956;28;1038;-65
2024/01/12 00:51:15;;;;;;;34.60;20.07;;;;;;;;;;688638;28;1723;-65
2024/01/12 00:51:35;;;;;;;33.67;19.80;;;;;;;;;;687401;28;1443;-64
2024/01/12 00:51:55;;;;;;;34.80;19.67;;;;;;;;;;685399;28;4577;-65
2024/01/12 00:52:16;;;;;;;35.90;20.43;;;;;;;;;;683401;28;2546;-65
2024/01/12 00:52:36;;;;;;;35.60;19.83;;;;;;;;;;683869;28;980;-65
2024/01/12 00:52:56;;;;;;;34.37;20.13;;;;;;;;;;684887;28;904;-65
2024/01/12 00:53:16;;;;;;;34.70;19.87;;;;;;;;;;683653;28;1544;-65
2024/01/12 00:53:37;;;;;;;36.35;20.10;;;;;;;;;;687739;28;832;-65
2024/01/12 00:53:57;;;;;;;35.37;20.10;;;;;;;;;;685172;28;992;-66
2024/01/12 00:54:17;;;;;;;35.80;20.00;;;;;;;;;;683990;28;2469;-65
2024/01/12 00:54:38;;;;;;;34.13;19.47;;;;;;;;;;685261;28;778;-66
2024/01/12 00:54:59;;;;;;;36.43;19.63;;;;;;;;;;687254;28;4277;-65
2024/01/12 00:55:19;;;;;;;36.80;20.05;;;;;;;;;;687606;28;1959;-65
2024/01/12 00:55:40;;;;;;;33.97;19.90;;;;;;;;;;688059;28;897;-65
2024/01/12 00:56:00;;;;;;;36.37;20.60;;;;;;;;;;687881;28;1148;-65
2024/01/12 00:56:20;;;;;;;36.72;19.77;;;;;;;;;;686820;28;1857;-65
2024/01/12 00:56:41;;;;;;;34.57;19.73;;;;;;;;;;687483;28;881;-65
2024/01/12 00:57:01;;;;;;;33.97;19.90;;;;;;;;;;688242;28;809;-65
2024/01/12 00:57:21;;;;;;;37.45;20.05;;;;;;;;;;687420;28;1783;-65
2024/01/12 00:57:41;;;;;;;37.77;20.47;;;;;;;;;;687935;28;936;-66
2024/01/12 00:58:02;;;;;;;36.30;20.47;;;;;;;;;;687492;28;4474;-65
2024/01/12 00:58:22;;;;;;;34.88;20.92;;;;;;;;;;686786;28;1841;-65
2024/01/12 00:58:42;;;;;;;32.37;19.57;;;;;;;;;;688515;28;1152;-66
2024/01/12 00:59:03;;;;;;;32.83;19.63;;;;;;;;;;689006;28;987;-66
2024/01/12 00:59:24;;;;;;;33.27;19.50;;;;;;;;;;689056;28;1319;-65
2024/01/12 00:59:44;;;;;;;35.58;20.15;;;;;;;;;;690643;28;955;-65
2024/01/12 01:00:05;;;;;;;33.27;20.23;;;;;;;;;;689713;28;916;-65
2024/01/12 01:00:25;;;;;;;33.08;20.10;;;;;;;;;;687724;28;2954;-65
2024/01/12 01:00:46;;;;;;;33.27;19.40;;;;;;;;;;686949;28;4328;-66
2024/01/12 01:01:06;;;;;;;31.83;19.33;;;;;;;;;;685186;28;1036;-66
2024/01/12 01:01:26;;;;;;;34.55;19.92;;;;;;;;;;684705;28;2344;-65
2024/01/12 01:01:46;;;;;;;37.37;20.07;;;;;;;;;;685685;28;1911;-65
2024/01/12 01:02:07;;;;;;;37.07;20.60;;;;;;;;;;685060;28;838;-65
2024/01/12 01:02:27;;;;;;;35.67;20.13;;;;;;;;;;684340;28;2607;-65
2024/01/12 01:02:47;;;;;;;36.33;20.20;;;;;;;;;;685246;28;1083;-65
2024/01/12 01:03:07;;;;;;;38.63;21.10;;;;;;;;;;684266;28;1498;-66
2024/01/12 01:03:27;;;;;;;36.00;20.53;;;;;;;;;;685454;28;881;-65
2024/01/12 01:03:48;;;;;;;35.55;20.27;;;;;;;;;;684858;28;4256;-66
2024/01/12 01:04:09;;;;;;;32.00;18.92;;;;;;;;;;683316;28;2331;-65
2024/01/12 01:04:29;;;;;;;32.67;19.43;;;;;;;;;;685530;28;947;-65
2024/01/12 01:04:49;;;;;;;34.10;19.90;;;;;;;;;;684972;28;897;-65
2024/01/12 01:05:09;;;;;;;36.03;20.40;;;;;;;;;;683934;28;2704;-65
2024/01/12 01:05:30;;;;;;;35.67;20.40;;;;;;;;;;685565;28;971;-65
2024/01/12 01:05:50;;;;;;;34.50;20.20;;;;;;;;;;685561;28;983;-65
2024/01/12 01:06:11;;;;;;;36.00;20.48;;;;;;;;;;683895;28;2074;-66
2024/01/12 01:06:31;;;;;;;36.13;20.17;;;;;;;;;;685278;28;940;-65
2024/01/12 01:06:52;;;;;;;35.10;20.23;;;;;;;;;;687193;28;4268;-65
2024/01/12 01:07:12;;;;;;;35.55;20.75;;;;;;;;;;686838;28;1852;-65
2024/01/12 01:07:32;;;;;;;36.33;20.57;;;;;;;;;;687846;28;976;-65
2024/01/12 01:07:53;;;;;;;37.10;20.88;;;;;;;;;;685093;28;927;-65
2024/01/12 01:08:13;;;;;;;37.90;20.67;;;;;;;;;;684425;28;1800;-65
2024/01/12 01:08:33;;;;;;;35.43;19.67;;;;;;;;;;685708;28;821;-65
2024/01/12 01:08:54;;;;;;;34.78;19.98;;;;;;;;;;685423;28;822;-65
2024/01/12 01:09:14;;;;;;;38.67;21.03;;;;;;;;;;683862;28;1734;-65
2024/01/12 01:09:35;;;;;;;38.78;20.88;;;;;;;;;;684774;28;1377;-65
2024/01/12 01:09:55;;;;;;;36.93;21.30;;;;;;;;;;685035;28;4506;-65
2024/01/12 01:10:15;;;;;;;37.40;21.13;;;;;;;;;;684552;28;2242;-65
2024/01/12 01:10:35;;;;;;;36.75;20.75;;;;;;;;;;684767;28;830;-65
2024/01/12 01:10:56;;;;;;;38.57;20.67;;;;;;;;;;685052;28;845;-65
2024/01/12 01:11:16;;;;;;;37.80;20.77;;;;;;;;;;684415;28;1851;-66
2024/01/12 01:11:36;;;;;;;36.77;20.53;;;;;;;;;;685358;28;972;-65
2024/01/12 01:11:56;;;;;;;34.23;20.20;;;;;;;;;;685111;28;884;-65
2024/01/12 01:12:18;;;;;;;35.33;20.33;;;;;;;;;;684413;28;1057;-65
2024/01/12 01:12:38;;;;;;;35.90;21.17;;;;;;;;;;685074;28;1464;-64
2024/01/12 01:12:58;;;;;;;37.07;21.47;;;;;;;;;;684131;28;4720;-65
2024/01/12 01:13:19;;;;;;;37.28;21.17;;;;;;;;;;683982;28;1834;-65
2024/01/12 01:13:39;;;;;;;36.53;20.90;;;;;;;;;;685186;28;1450;-65
2024/01/12 01:13:59;;;;;;;38.57;21.40;;;;;;;;;;685661;28;904;-65
2024/01/12 01:14:22;;;;;;;40.03;21.35;;;;;;;;;;684384;28;1967;-65
2024/01/12 01:14:42;;;;;;;39.38;22.02;;;;;;;;;;684732;28;1015;-66
2024/01/12 01:15:04;;;;;;;36.90;21.08;;;;;;;;;;685267;28;866;-65
2024/01/12 01:15:24;;;;;;;36.05;21.23;;;;;;;;;;684874;28;965;-65
2024/01/12 01:15:45;;;;;;;36.40;20.70;;;;;;;;;;685081;28;4299;-65
2024/01/12 01:16:05;;;;;;;36.73;20.83;;;;;;;;;;685122;28;897;-65
2024/01/12 01:16:26;;;;;;;37.73;21.67;;;;;;;;;;684040;28;3412;-65
2024/01/12 01:16:46;;;;;;;37.22;21.73;;;;;;;;;;685442;28;1257;-65
2024/01/12 01:17:06;;;;;;;36.80;21.33;;;;;;;;;;685243;28;925;-65
2024/01/12 01:17:26;;;;;;;36.70;21.07;;;;;;;;;;684107;28;2318;-66
2024/01/12 01:17:47;;;;;;;35.40;20.90;;;;;;;;;;685543;28;845;-65
2024/01/12 01:18:07;;;;;;;38.87;22.50;;;;;;;;;;685477;28;1056;-65
2024/01/12 01:18:30;;;;;;;40.22;21.75;;;;;;;;;;684688;28;1476;-65
2024/01/12 01:18:50;;;;;;;36.80;20.90;;;;;;;;;;684268;28;4444;-65
2024/01/12 01:19:10;;;;;;;35.30;21.07;;;;;;;;;;686657;28;1833;-66
2024/01/12 01:19:30;;;;;;;39.47;21.57;;;;;;;;;;684880;28;823;-66
2024/01/12 01:19:51;;;;;;;38.60;21.07;;;;;;;;;;685108;28;1072;-66
2024/01/12 01:20:11;;;;;;;35.97;21.63;;;;;;;;;;684158;28;2501;-65
2024/01/12 01:20:33;;;;;;;36.63;22.48;;;;;;;;;;685459;28;987;-65
2024/01/12 01:20:53;;;;;;;34.95;21.15;;;;;;;;;;684948;28;1058;-65
2024/01/12 01:21:13;;;;;;;37.93;20.90;;;;;;;;;;684454;28;1012;-65
2024/01/12 01:21:33;;;;;;;39.43;21.77;;;;;;;;;;684840;28;1142;-65
2024/01/12 01:21:54;;;;;;;38.08;21.83;;;;;;;;;;684882;28;4560;-66
2024/01/12 01:22:14;;;;;;;37.93;21.37;;;;;;;;;;684547;28;2334;-65
2024/01/12 01:22:34;;;;;;;37.57;20.70;;;;;;;;;;685439;28;820;-65
2024/01/12 01:22:55;;;;;;;37.53;20.98;;;;;;;;;;685222;28;1178;-66
2024/01/12 01:23:17;;;;;;;39.67;21.53;;;;;;;;;;684158;28;2679;-65
2024/01/12 01:23:37;;;;;;;40.25;22.27;;;;;;;;;;685439;28;1158;-65
2024/01/12 01:23:57;;;;;;;39.50;21.50;;;;;;;;;;684206;28;913;-66
2024/01/12 01:24:17;;;;;;;40.65;21.67;;;;;;;;;;684420;28;2220;-65
2024/01/12 01:24:37;;;;;;;38.77;21.13;;;;;;;;;;685418;28;945;-65
2024/01/12 01:24:58;;;;;;;37.43;21.37;;;;;;;;;;684327;28;4481;-65
2024/01/12 01:25:18;;;;;;;38.17;22.13;;;;;;;;;;684419;28;2403;-65
2024/01/12 01:25:39;;;;;;;41.37;21.90;;;;;;;;;;685234;28;936;-66
2024/01/12 01:25:59;;;;;;;39.05;21.95;;;;;;;;;;685554;28;841;-65
2024/01/12 01:26:19;;;;;;;38.17;21.23;;;;;;;;;;684425;28;2437;-65
2024/01/12 01:26:39;;;;;;;38.50;21.43;;;;;;;;;;687609;28;1493;-65
2024/01/12 01:27:00;;;;;;;39.97;21.88;;;;;;;;;;688122;28;1108;-65
2024/01/12 01:27:20;;;;;;;38.90;21.97;;;;;;;;;;686345;28;1699;-65
2024/01/12 01:27:40;;;;;;;38.17;22.50;;;;;;;;;;687238;28;1290;-66
2024/01/12 01:28:01;;;;;;;40.40;22.53;;;;;;;;;;687411;28;4302;-65
2024/01/12 01:28:22;;;;;;;38.28;21.85;;;;;;;;;;686641;28;2319;-65
2024/01/12 01:28:42;;;;;;;38.77;22.07;;;;;;;;;;685029;28;1429;-65
2024/01/12 01:29:02;;;;;;;40.92;22.35;;;;;;;;;;685505;28;1165;-64
2024/01/12 01:29:23;;;;;;;39.50;21.70;;;;;;;;;;683785;28;2208;-65
2024/01/12 01:29:43;;;;;;;34.85;21.20;;;;;;;;;;685286;28;837;-65
2024/01/12 01:30:04;;;;;;;35.97;21.27;;;;;;;;;;685274;28;913;-65
2024/01/12 01:30:24;;;;;;;36.37;21.03;;;;;;;;;;684157;28;2295;-65
2024/01/12 01:30:44;;;;;;;37.30;20.88;;;;;;;;;;683454;28;4374;-65
2024/01/12 01:31:04;;;;;;;37.00;21.30;;;;;;;;;;685653;28;964;-65
2024/01/12 01:31:25;;;;;;;37.97;20.63;;;;;;;;;;683906;28;2428;-65
2024/01/12 01:31:45;;;;;;;38.70;21.50;;;;;;;;;;684691;28;932;-65
2024/01/12 01:32:05;;;;;;;36.77;21.50;;;;;;;;;;685704;28;943;-65
2024/01/12 01:32:25;;;;;;;36.07;21.20;;;;;;;;;;683696;28;2299;-65
2024/01/12 01:32:47;;;;;;;38.43;21.17;;;;;;;;;;685019;28;977;-65
2024/01/12 01:33:08;;;;;;;40.65;21.10;;;;;;;;;;685222;28;1382;-65
2024/01/12 01:33:28;;;;;;;39.53;21.33;;;;;;;;;;683978;28;1821;-66
2024/01/12 01:33:48;;;;;;;40.83;21.52;;;;;;;;;;684494;28;4355;-65
2024/01/12 01:34:09;;;;;;;38.17;21.43;;;;;;;;;;684955;28;1552;-66
2024/01/12 01:34:29;;;;;;;38.00;21.60;;;;;;;;;;684034;28;2194;-66
2024/01/12 01:34:49;;;;;;;36.70;21.30;;;;;;;;;;685413;28;992;-65
2024/01/12 01:35:09;;;;;;;36.30;20.73;;;;;;;;;;684630;28;1950;-67
2024/01/12 01:35:30;;;;;;;36.33;21.17;;;;;;;;;;683743;28;1391;-65
2024/01/12 01:35:50;;;;;;;38.05;21.30;;;;;;;;;;685061;28;1125;-65
2024/01/12 01:36:10;;;;;;;36.47;20.93;;;;;;;;;;684506;28;2508;-65
2024/01/12 01:36:30;;;;;;;35.67;20.93;;;;;;;;;;685703;28;1091;-65
2024/01/12 01:36:51;;;;;;;39.90;21.08;;;;;;;;;;684518;28;4362;-66
2024/01/12 01:37:11;;;;;;;40.03;21.27;;;;;;;;;;684501;28;1839;-65
2024/01/12 01:37:31;;;;;;;36.33;21.33;;;;;;;;;;685655;28;1189;-66
2024/01/12 01:37:51;;;;;;;36.00;21.58;;;;;;;;;;685245;28;818;-66
2024/01/12 01:38:12;;;;;;;36.77;22.60;;;;;;;;;;684128;28;2271;-65
2024/01/12 01:38:32;;;;;;;35.03;21.40;;;;;;;;;;685517;28;866;-65
2024/01/12 01:38:52;;;;;;;37.65;20.70;;;;;;;;;;685431;28;1095;-65
2024/01/12 01:39:12;;;;;;;41.17;21.40;;;;;;;;;;683820;28;6286;-65
2024/01/12 01:39:33;;;;;;;41.30;21.07;;;;;;;;;;684897;28;877;-65
2024/01/12 01:39:53;;;;;;;40.67;21.55;;;;;;;;;;685785;28;4399;-65
2024/01/12 01:40:13;;;;;;;39.63;21.60;;;;;;;;;;686568;28;1861;-65
2024/01/12 01:40:33;;;;;;;38.57;21.00;;;;;;;;;;687978;28;881;-65
2024/01/12 01:40:54;;;;;;;40.83;22.05;;;;;;;;;;687672;28;1499;-65
2024/01/12 01:41:14;;;;;;;41.93;22.40;;;;;;;;;;684215;28;2409;-65
2024/01/12 01:41:35;;;;;;;38.70;20.58;;;;;;;;;;685622;28;818;-65
2024/01/12 01:41:56;;;;;;;37.88;20.80;;;;;;;;;;685359;28;1915;-65
2024/01/12 01:42:16;;;;;;;36.40;22.00;;;;;;;;;;684091;28;2324;-65
2024/01/12 01:42:36;;;;;;;38.13;22.40;;;;;;;;;;684953;28;1019;-64
2024/01/12 01:42:57;;;;;;;38.28;21.70;;;;;;;;;;686791;28;4531;-65
2024/01/12 01:43:17;;;;;;;35.70;21.17;;;;;;;;;;689748;28;1489;-65
2024/01/12 01:43:37;;;;;;;39.35;21.88;;;;;;;;;;690814;28;984;-65
2024/01/12 01:43:57;;;;;;;40.70;21.77;;;;;;;;;;690260;28;937;-65
2024/01/12 01:44:18;;;;;;;38.53;21.10;;;;;;;;;;689206;28;2185;-64
2024/01/12 01:44:38;;;;;;;38.50;21.77;;;;;;;;;;690708;28;862;-65
2024/01/12 01:44:58;;;;;;;38.53;21.43;;;;;;;;;;690819;28;952;-65
2024/01/12 01:45:18;;;;;;;37.33;21.53;;;;;;;;;;686708;28;2211;-65
2024/01/12 01:45:39;;;;;;;36.88;22.15;;;;;;;;;;688135;28;1247;-65
2024/01/12 01:45:59;;;;;;;39.13;21.97;;;;;;;;;;687134;28;4404;-66
2024/01/12 01:46:21;;;;;;;37.85;21.30;;;;;;;;;;686412;28;1075;-65
2024/01/12 01:46:41;;;;;;;39.80;22.05;;;;;;;;;;687606;28;870;-65
2024/01/12 01:47:01;;;;;;;40.27;22.03;;;;;;;;;;688191;28;770;-66
2024/01/12 01:47:21;;;;;;;39.53;21.73;;;;;;;;;;686804;28;2167;-65
2024/01/12 01:47:43;;;;;;;37.63;21.47;;;;;;;;;;688170;28;959;-65
2024/01/12 01:48:05;;;;;;;39.10;21.63;;;;;;;;;;687936;28;1003;-65
2024/01/12 01:48:25;;;;;;;38.90;22.50;;;;;;;;;;686725;28;1770;-65
2024/01/12 01:48:45;;;;;;;40.78;22.48;;;;;;;;;;687704;28;4273;-65
2024/01/12 01:49:06;;;;;;;40.53;22.40;;;;;;;;;;688259;28;975;-65
2024/01/12 01:49:26;;;;;;;39.47;21.90;;;;;;;;;;685262;28;1385;-65
2024/01/12 01:49:46;;;;;;;39.83;21.33;;;;;;;;;;687870;28;770;-65
2024/01/12 01:50:07;;;;;;;39.47;21.17;;;;;;;;;;688325;28;1028;-65
2024/01/12 01:50:27;;;;;;;38.97;21.45;;;;;;;;;;686644;28;2824;-66
2024/01/12 01:50:48;;;;;;;39.97;21.83;;;;;;;;;;687671;28;929;-65
2024/01/12 01:51:08;;;;;;;39.57;21.73;;;;;;;;;;688159;28;1369;-65
2024/01/12 01:51:29;;;;;;;42.70;22.30;;;;;;;;;;686739;28;1819;-65
2024/01/12 01:51:49;;;;;;;44.97;21.80;;;;;;;;;;687033;28;4425;-65
2024/01/12 01:52:09;;;;;;;44.00;22.23;;;;;;;;;;687805;28;870;-65
2024/01/12 01:52:30;;;;;;;41.00;22.55;;;;;;;;;;686208;28;1465;-65
2024/01/12 01:52:50;;;;;;;38.88;22.10;;;;;;;;;;687149;28;1112;-65
2024/01/12 01:53:11;;;;;;;39.27;22.13;;;;;;;;;;686941;28;2260;-65
2024/01/12 01:53:31;;;;;;;41.10;22.17;;;;;;;;;;687524;28;1045;-65
2024/01/12 01:53:52;;;;;;;39.40;21.00;;;;;;;;;;687716;28;790;-65
2024/01/12 01:54:13;;;;;;;40.55;21.13;;;;;;;;;;684624;28;1820;-64
2024/01/12 01:54:34;;;;;;;41.42;21.38;;;;;;;;;;684778;28;859;-65
2024/01/12 01:54:55;;;;;;;40.03;20.98;;;;;;;;;;684727;28;4351;-65
2024/01/12 01:55:16;;;;;;;41.78;21.65;;;;;;;;;;684382;28;2471;-65
2024/01/12 01:55:36;;;;;;;40.53;21.73;;;;;;;;;;685350;28;964;-65
2024/01/12 01:55:56;;;;;;;38.43;21.67;;;;;;;;;;685594;28;972;-65
2024/01/12 01:56:17;;;;;;;38.60;21.58;;;;;;;;;;684270;28;969;-65
2024/01/12 01:56:38;;;;;;;39.20;20.90;;;;;;;;;;684999;28;866;-65
2024/01/12 01:56:58;;;;;;;38.60;21.50;;;;;;;;;;685452;28;909;-65
2024/01/12 01:57:19;;;;;;;39.03;21.83;;;;;;;;;;684527;28;1729;-65
2024/01/12 01:57:42;;;;;;;41.58;22.17;;;;;;;;;;685122;28;1008;-65
2024/01/12 01:58:02;;;;;;;41.30;21.23;;;;;;;;;;685045;28;4575;-65
2024/01/12 01:58:22;;;;;;;41.85;21.95;;;;;;;;;;684483;28;1693;-66
2024/01/12 01:58:43;;;;;;;40.60;22.20;;;;;;;;;;685093;28;865;-65
2024/01/12 01:59:03;;;;;;;42.28;22.33;;;;;;;;;;685192;28;861;-65
2024/01/12 01:59:23;;;;;;;39.33;22.27;;;;;;;;;;683576;28;1858;-65
2024/01/12 01:59:44;;;;;;;40.05;21.55;;;;;;;;;;685313;28;934;-65
2024/01/12 02:00:05;;;;;;;40.07;21.63;;;;;;;;;;685291;28;916;-65
2024/01/12 02:00:32;;;;;;;41.25;22.42;;;;;;;;;;684439;28;691;-65
2024/01/12 02:00:52;;;;;;;39.73;21.90;;;;;;;;;;685688;28;4350;-65
2024/01/12 02:01:13;;;;;;;42.15;22.10;;;;;;;;;;686776;28;1784;-65
2024/01/12 02:01:33;;;;;;;42.77;22.03;;;;;;;;;;688405;28;944;-65
2024/01/12 02:01:53;;;;;;;43.13;21.90;;;;;;;;;;687685;28;1910;-65
2024/01/12 02:02:14;;;;;;;40.33;22.10;;;;;;;;;;692275;28;2621;-65
2024/01/12 02:02:34;;;;;;;42.93;23.27;;;;;;;;;;693174;28;901;-64
2024/01/12 02:02:54;;;;;;;42.13;22.47;;;;;;;;;;692933;28;937;-65
2024/01/12 02:03:15;;;;;;;39.17;22.03;;;;;;;;;;691953;28;1087;-65
2024/01/12 02:03:36;;;;;;;41.55;22.05;;;;;;;;;;693389;28;900;-66